createdAt,value
2018-11-29T00:01:07.640Z,6.40
2018-11-29T00:03:37.929Z,6.50
2018-11-29T00:06:22.514Z,6.60
2018-11-29T00:08:51.920Z,6.50
2018-11-29T00:11:21.322Z,6.50
2018-11-29T00:13:50.743Z,6.60
2018-11-29T00:16:20.167Z,6.60
2018-11-29T00:18:49.576Z,6.60
2018-11-29T00:21:18.994Z,6.50
2018-11-29T00:23:48.398Z,6.30
2018-11-29T00:26:17.799Z,6.10
2018-11-29T00:28:47.211Z,5.90
2018-11-29T00:31:16.622Z,5.90
2018-11-29T00:33:46.023Z,5.90
2018-11-29T00:36:15.443Z,6.00
2018-11-29T00:38:44.923Z,6.10
2018-11-29T00:41:14.435Z,6.20
2018-11-29T00:43:43.806Z,6.30
2018-11-29T00:46:13.218Z,6.30
2018-11-29T00:48:42.641Z,6.10
2018-11-29T00:51:12.147Z,6.00
2018-11-29T00:53:41.563Z,6.00
2018-11-29T00:56:10.975Z,6.10
2018-11-29T00:58:40.399Z,6.20
2018-11-29T01:01:09.857Z,6.20
2018-11-29T01:03:39.256Z,6.40
2018-11-29T01:06:08.766Z,6.50
2018-11-29T01:08:38.168Z,6.40
2018-11-29T01:11:07.575Z,6.40
2018-11-29T01:13:37.052Z,6.20
2018-11-29T01:16:06.462Z,6.10
2018-11-29T01:18:36.211Z,6.10
2018-11-29T01:21:06.407Z,6.20
2018-11-29T01:23:35.808Z,6.30
2018-11-29T01:26:05.562Z,6.30
2018-11-29T01:28:34.999Z,6.20
2018-11-29T01:31:04.502Z,6.10
2018-11-29T01:33:33.936Z,6.10
2018-11-29T01:36:03.435Z,6.00
2018-11-29T01:38:32.839Z,5.90
2018-11-29T01:41:02.290Z,5.80
2018-11-29T01:43:31.744Z,5.80
2018-11-29T01:46:01.167Z,5.70
2018-11-29T01:48:30.595Z,5.60
2018-11-29T01:51:00.002Z,5.60
2018-11-29T01:53:34.494Z,5.50
2018-11-29T01:56:03.980Z,5.50
2018-11-29T01:58:33.408Z,5.40
2018-11-29T02:01:02.893Z,5.40
2018-11-29T02:03:32.319Z,5.40
2018-11-29T02:06:01.755Z,5.40
2018-11-29T02:08:31.179Z,5.40
2018-11-29T02:11:00.611Z,5.40
2018-11-29T02:13:30.023Z,5.40
2018-11-29T02:16:05.566Z,5.40
2018-11-29T02:18:34.980Z,5.50
2018-11-29T02:21:05.134Z,5.50
2018-11-29T02:23:34.542Z,5.70
2018-11-29T02:26:04.021Z,5.80
2018-11-29T02:28:33.439Z,5.80
2018-11-29T02:31:07.862Z,5.90
2018-11-29T02:33:37.268Z,5.90
2018-11-29T02:36:06.682Z,5.80
2018-11-29T02:38:36.465Z,5.70
2018-11-29T02:41:06.442Z,5.60
2018-11-29T02:43:35.857Z,5.60
2018-11-29T02:46:05.511Z,5.60
2018-11-29T02:48:34.926Z,5.80
2018-11-29T02:51:04.342Z,5.80
2018-11-29T02:53:33.844Z,5.70
2018-11-29T02:56:03.365Z,5.60
2018-11-29T02:58:37.895Z,5.70
2018-11-29T03:01:12.295Z,5.80
2018-11-29T03:03:41.732Z,5.80
2018-11-29T03:06:11.208Z,5.90
2018-11-29T03:08:40.595Z,6.10
2018-11-29T03:11:10.043Z,6.20
2018-11-29T03:13:44.538Z,6.20
2018-11-29T03:16:14.040Z,6.20
2018-11-29T03:18:43.422Z,6.30
2018-11-29T03:21:12.831Z,6.40
2018-11-29T03:23:42.339Z,6.40
2018-11-29T03:26:11.875Z,6.40
2018-11-29T03:28:41.583Z,6.40
2018-11-29T03:31:11.095Z,6.40
2018-11-29T03:33:40.516Z,6.40
2018-11-29T03:36:09.982Z,6.40
2018-11-29T03:38:39.487Z,6.40
2018-11-29T03:41:09.020Z,6.40
2018-11-29T03:43:38.434Z,6.40
2018-11-29T03:46:07.846Z,6.40
2018-11-29T03:48:37.282Z,6.30
2018-11-29T03:51:06.696Z,6.40
2018-11-29T03:53:36.142Z,6.40
2018-11-29T03:56:06.119Z,6.30
2018-11-29T03:58:35.825Z,6.10
2018-11-29T04:01:05.370Z,6.00
2018-11-29T04:03:34.779Z,5.80
2018-11-29T04:06:04.192Z,5.70
2018-11-29T04:08:33.639Z,5.60
2018-11-29T04:11:03.064Z,5.70
2018-11-29T04:13:32.470Z,5.80
2018-11-29T04:16:02.359Z,5.90
2018-11-29T04:18:31.746Z,6.00
2018-11-29T04:21:01.175Z,6.10
2018-11-29T04:23:30.626Z,6.10
2018-11-29T04:26:00.034Z,6.10
2018-11-29T04:28:34.495Z,6.10
2018-11-29T04:31:03.988Z,6.00
2018-11-29T04:33:33.420Z,5.90
2018-11-29T04:36:07.918Z,5.90
2018-11-29T04:38:37.487Z,5.90
2018-11-29T04:41:11.965Z,5.80
2018-11-29T04:43:41.362Z,5.80
2018-11-29T04:46:47.170Z,5.60
2018-11-29T04:49:16.611Z,5.40
2018-11-29T04:51:46.027Z,5.20
2018-11-29T04:54:15.462Z,5.00
2018-11-29T04:56:44.891Z,5.10
2018-11-29T04:59:14.294Z,5.00
2018-11-29T05:01:43.699Z,5.10
2018-11-29T05:04:13.803Z,5.00
2018-11-29T05:06:43.244Z,5.10
2018-11-29T05:09:12.619Z,5.10
2018-11-29T05:11:42.031Z,5.10
2018-11-29T05:14:11.451Z,5.10
2018-11-29T05:16:40.961Z,4.90
2018-11-29T05:19:15.386Z,4.80
2018-11-29T05:21:49.798Z,4.60
2018-11-29T05:24:19.530Z,4.50
2018-11-29T05:26:54.027Z,4.30
2018-11-29T05:29:23.445Z,4.20
2018-11-29T05:31:52.858Z,4.40
2018-11-29T05:34:22.275Z,4.50
2018-11-29T05:36:51.696Z,4.40
2018-11-29T05:39:21.102Z,4.20
2018-11-29T05:41:50.515Z,4.00
2018-11-29T05:44:20.050Z,3.80
2018-11-29T05:46:49.459Z,3.70
2018-11-29T05:49:18.855Z,3.50
2018-11-29T05:51:48.263Z,3.40
2018-11-29T05:54:17.750Z,3.20
2018-11-29T05:56:47.160Z,3.20
2018-11-29T05:59:16.642Z,3.40
2018-11-29T06:01:46.830Z,3.60
2018-11-29T06:04:16.318Z,3.50
2018-11-29T06:06:45.718Z,3.30
2018-11-29T06:09:15.227Z,3.30
2018-11-29T06:11:44.682Z,3.30
2018-11-29T06:14:14.715Z,3.20
2018-11-29T06:16:44.119Z,3.20
2018-11-29T06:19:13.630Z,3.20
2018-11-29T06:21:43.019Z,3.20
2018-11-29T06:24:13.634Z,3.20
2018-11-29T06:26:41.938Z,3.40
2018-11-29T06:29:11.339Z,3.50
2018-11-29T06:31:40.839Z,3.60
2018-11-29T06:34:10.206Z,3.80
2018-11-29T06:36:39.682Z,3.80
2018-11-29T06:39:10.163Z,3.80
2018-11-29T06:41:39.580Z,3.60
2018-11-29T06:44:08.950Z,3.50
2018-11-29T06:46:38.487Z,3.20
2018-11-29T06:49:07.862Z,2.90
2018-11-29T06:51:37.310Z,2.80
2018-11-29T06:54:07.002Z,2.80
2018-11-29T06:56:36.399Z,2.90
2018-11-29T06:59:06.051Z,2.90
2018-11-29T07:01:35.619Z,2.90
2018-11-29T07:04:05.365Z,2.80
2018-11-29T07:06:34.787Z,2.70
2018-11-29T07:09:05.862Z,2.60
2018-11-29T07:11:35.298Z,2.60
2018-11-29T07:14:04.830Z,2.80
2018-11-29T07:16:34.298Z,2.80
2018-11-29T07:19:03.783Z,2.90
2018-11-29T07:21:52.510Z,3.10
2018-11-29T07:24:22.396Z,3.20
2018-11-29T07:26:51.884Z,3.10
2018-11-29T07:29:21.287Z,3.10
2018-11-29T07:31:50.873Z,3.20
2018-11-29T07:34:20.377Z,3.30
2018-11-29T07:36:49.804Z,3.20
2018-11-29T07:39:20.331Z,3.10
2018-11-29T07:41:49.864Z,2.90
2018-11-29T07:44:24.336Z,2.90
2018-11-29T07:46:54.066Z,2.90
2018-11-29T07:49:23.546Z,2.80
2018-11-29T07:51:53.091Z,2.90
2018-11-29T07:54:22.511Z,3.00
2018-11-29T07:56:51.926Z,3.20
2018-11-29T07:59:21.404Z,3.40
2018-11-29T08:01:50.818Z,3.50
2018-11-29T08:04:20.243Z,3.80
2018-11-29T08:06:49.656Z,4.00
2018-11-29T08:09:19.115Z,4.30
2018-11-29T08:11:48.534Z,4.60
2018-11-29T08:14:18.407Z,4.90
2018-11-29T08:16:47.856Z,5.10
2018-11-29T08:19:17.270Z,5.40
2018-11-29T08:21:46.691Z,5.60
2018-11-29T08:24:16.182Z,5.70
2018-11-29T08:26:45.667Z,5.80
2018-11-29T08:29:15.079Z,5.80
2018-11-29T08:31:44.517Z,5.80
2018-11-29T08:34:14.020Z,5.80
2018-11-29T08:36:43.407Z,6.00
2018-11-29T08:39:12.838Z,6.00
2018-11-29T08:41:42.287Z,6.10
2018-11-29T08:44:11.703Z,6.30
2018-11-29T08:46:41.123Z,6.40
2018-11-29T08:49:10.814Z,6.40
2018-11-29T08:51:40.265Z,6.40
2018-11-29T08:54:09.694Z,6.40
2018-11-29T08:56:39.192Z,6.50
2018-11-29T08:59:08.614Z,6.60
2018-11-29T09:01:37.982Z,6.70
2018-11-29T09:04:07.479Z,6.70
2018-11-29T09:06:41.968Z,6.70
2018-11-29T09:09:11.394Z,6.80
2018-11-29T09:11:40.895Z,7.00
2018-11-29T09:14:10.502Z,7.10
2018-11-29T09:16:39.912Z,7.40
2018-11-29T09:19:09.326Z,7.70
2018-11-29T09:21:39.343Z,7.80
2018-11-29T09:24:08.754Z,7.90
2018-11-29T09:26:38.205Z,8.00
2018-11-29T09:29:07.638Z,7.90
2018-11-29T09:31:37.071Z,7.80
2018-11-29T09:34:06.506Z,7.90
2018-11-29T09:36:35.954Z,7.80
2018-11-29T09:39:07.854Z,7.80
2018-11-29T09:41:37.408Z,7.90
2018-11-29T09:44:06.778Z,8.10
2018-11-29T09:46:36.211Z,8.10
2018-11-29T09:49:05.745Z,8.00
2018-11-29T09:51:35.162Z,8.10
2018-11-29T09:54:04.590Z,8.10
2018-11-29T09:56:34.191Z,8.00
2018-11-29T09:59:03.659Z,8.20
2018-11-29T10:01:33.150Z,8.30
2018-11-29T10:04:02.639Z,8.40
2018-11-29T10:06:32.078Z,8.50
2018-11-29T10:09:01.540Z,8.50
2018-11-29T10:11:31.066Z,8.60
2018-11-29T10:14:00.405Z,8.70
2018-11-29T10:16:34.910Z,8.70
2018-11-29T10:19:04.396Z,8.70
2018-11-29T10:21:38.918Z,8.80
2018-11-29T10:24:08.337Z,8.80
2018-11-29T10:26:37.743Z,8.90
2018-11-29T10:29:07.438Z,9.00
2018-11-29T10:31:37.027Z,9.10
2018-11-29T10:34:06.399Z,9.40
2018-11-29T10:36:35.934Z,9.50
2018-11-29T10:39:07.527Z,9.60
2018-11-29T10:41:36.947Z,9.70
2018-11-29T10:44:06.379Z,9.70
2018-11-29T10:46:35.794Z,9.70
2018-11-29T10:49:05.206Z,9.80
2018-11-29T10:51:34.642Z,10.00
2018-11-29T10:54:04.243Z,10.10
2018-11-29T10:56:33.671Z,10.40
2018-11-29T10:59:03.218Z,10.60
2018-11-29T11:01:36.818Z,10.70
2018-11-29T11:04:06.247Z,10.80
2018-11-29T11:06:35.659Z,10.80
2018-11-29T11:09:07.995Z,10.70
2018-11-29T11:11:37.366Z,10.70
2018-11-29T11:14:06.924Z,10.60
2018-11-29T11:16:36.347Z,10.60
2018-11-29T11:19:05.900Z,10.60
2018-11-29T11:21:35.290Z,10.50
2018-11-29T11:24:04.706Z,10.50
2018-11-29T11:26:34.123Z,10.40
2018-11-29T11:29:03.538Z,10.40
2018-11-29T11:31:33.039Z,10.40
2018-11-29T11:34:02.633Z,10.50
2018-11-29T11:36:32.018Z,10.50
2018-11-29T11:39:01.539Z,10.50
2018-11-29T11:41:30.966Z,10.50
2018-11-29T11:44:00.471Z,10.50
2018-11-29T11:46:29.917Z,10.50
2018-11-29T11:48:59.400Z,10.50
2018-11-29T11:51:28.859Z,10.50
2018-11-29T11:53:58.259Z,10.60
2018-11-29T11:56:27.696Z,10.70
2018-11-29T11:58:57.170Z,11.00
2018-11-29T12:01:26.682Z,11.00
2018-11-29T12:03:56.122Z,10.90
2018-11-29T12:06:25.553Z,10.70
2018-11-29T12:08:54.979Z,10.60
2018-11-29T12:11:29.411Z,10.60
2018-11-29T12:14:03.851Z,10.60
2018-11-29T12:16:33.346Z,10.50
2018-11-29T12:19:03.168Z,10.60
2018-11-29T12:21:32.722Z,10.60
2018-11-29T12:24:02.210Z,10.70
2018-11-29T12:26:31.614Z,10.90
2018-11-29T12:29:01.075Z,10.90
2018-11-29T12:31:30.570Z,10.90
2018-11-29T12:33:59.999Z,10.90
2018-11-29T12:36:34.494Z,11.10
2018-11-29T12:39:03.999Z,11.10
2018-11-29T12:41:33.407Z,11.10
2018-11-29T12:44:02.835Z,11.20
2018-11-29T12:46:32.247Z,11.10
2018-11-29T12:49:01.670Z,11.00
2018-11-29T12:51:31.070Z,10.90
2018-11-29T12:54:00.508Z,10.80
2018-11-29T12:56:35.030Z,10.80
2018-11-29T12:59:04.460Z,10.80
2018-11-29T13:01:33.938Z,10.80
2018-11-29T13:04:03.347Z,10.90
2018-11-29T13:06:37.879Z,10.90
2018-11-29T13:09:09.759Z,11.00
2018-11-29T13:11:39.175Z,11.00
2018-11-29T13:14:08.700Z,10.80
2018-11-29T13:16:38.337Z,10.80
2018-11-29T13:19:13.328Z,10.70
2018-11-29T13:21:47.883Z,10.70
2018-11-29T13:24:17.309Z,10.70
2018-11-29T13:26:51.922Z,10.60
2018-11-29T13:29:21.325Z,10.50
2018-11-29T13:31:50.747Z,10.60
2018-11-29T13:34:20.169Z,10.50
2018-11-29T13:36:49.576Z,10.50
2018-11-29T13:39:24.071Z,10.50
2018-11-29T13:41:53.540Z,10.50
2018-11-29T13:44:22.970Z,10.50
2018-11-29T13:46:52.387Z,10.50
2018-11-29T13:49:21.803Z,10.60
2018-11-29T13:51:52.830Z,10.70
2018-11-29T13:54:22.323Z,10.70
2018-11-29T13:56:51.731Z,10.80
2018-11-29T13:59:21.260Z,10.80
2018-11-29T14:01:50.758Z,10.80
2018-11-29T14:04:20.175Z,10.70
2018-11-29T14:06:49.624Z,10.80
2018-11-29T14:09:19.134Z,10.80
2018-11-29T14:11:53.551Z,10.80
2018-11-29T14:14:22.981Z,10.80
2018-11-29T14:16:52.400Z,10.80
2018-11-29T14:19:21.837Z,10.70
2018-11-29T14:21:51.597Z,10.80
2018-11-29T14:24:21.098Z,10.80
2018-11-29T14:26:50.530Z,10.80
2018-11-29T14:29:19.943Z,10.90
2018-11-29T14:31:49.411Z,10.90
2018-11-29T14:34:19.508Z,10.90
2018-11-29T14:36:48.943Z,11.00
2018-11-29T14:39:18.354Z,10.90
2018-11-29T14:41:47.771Z,10.90
2018-11-29T14:44:22.204Z,10.80
2018-11-29T14:46:51.648Z,10.70
2018-11-29T14:49:21.060Z,10.80
2018-11-29T14:51:50.486Z,10.60
2018-11-29T14:54:19.907Z,10.40
2018-11-29T14:56:54.378Z,10.40
2018-11-29T14:59:23.770Z,10.30
2018-11-29T15:01:53.216Z,10.10
2018-11-29T15:04:27.715Z,9.90
2018-11-29T15:06:57.131Z,9.80
2018-11-29T15:09:26.626Z,9.70
2018-11-29T15:11:56.050Z,9.60
2018-11-29T15:14:25.459Z,9.50
2018-11-29T15:16:54.903Z,9.50
2018-11-29T15:19:24.418Z,9.50
2018-11-29T15:21:53.845Z,9.50
2018-11-29T15:24:23.302Z,9.50
2018-11-29T15:26:52.829Z,9.40
2018-11-29T15:29:22.194Z,9.40
2018-11-29T15:31:51.615Z,9.40
2018-11-29T15:34:21.054Z,9.40
2018-11-29T15:36:50.502Z,9.40
2018-11-29T15:39:19.919Z,9.40
2018-11-29T15:41:49.354Z,9.40
2018-11-29T15:44:18.851Z,9.50
2018-11-29T15:46:48.263Z,9.60
2018-11-29T15:49:17.758Z,9.50
2018-11-29T15:51:47.187Z,9.50
2018-11-29T15:54:16.593Z,9.40
2018-11-29T15:56:46.066Z,9.50
2018-11-29T15:59:15.482Z,9.70
2018-11-29T16:01:44.914Z,9.90
2018-11-29T16:04:14.457Z,10.00
2018-11-29T16:06:43.871Z,10.10
2018-11-29T16:09:13.283Z,10.10
2018-11-29T16:11:42.676Z,10.20
2018-11-29T16:14:17.172Z,10.20
2018-11-29T16:16:46.713Z,10.00
2018-11-29T16:19:16.092Z,9.70
2018-11-29T16:21:45.486Z,9.50
2018-11-29T16:24:14.903Z,9.40
2018-11-29T16:26:44.318Z,9.30
2018-11-29T16:29:13.737Z,9.50
2018-11-29T16:31:43.131Z,9.70
2018-11-29T16:34:12.530Z,9.70
2018-11-29T16:36:47.278Z,9.70
2018-11-29T16:39:16.719Z,9.60
2018-11-29T16:41:46.123Z,9.60
2018-11-29T16:44:15.558Z,9.60
2018-11-29T16:46:44.972Z,9.50
2018-11-29T16:49:14.382Z,9.40
2018-11-29T16:51:43.810Z,9.50
2018-11-29T16:54:13.218Z,9.50
2018-11-29T16:56:42.634Z,9.60
2018-11-29T16:59:12.074Z,9.70
2018-11-29T17:01:41.588Z,9.70
2018-11-29T17:04:10.991Z,9.60
2018-11-29T17:06:40.498Z,9.50
2018-11-29T17:09:09.876Z,9.50
2018-11-29T17:11:39.561Z,9.50
2018-11-29T17:14:09.008Z,9.40
2018-11-29T17:16:38.386Z,9.50
2018-11-29T17:19:07.916Z,9.60
2018-11-29T17:21:37.319Z,9.60
2018-11-29T17:24:06.752Z,9.60
2018-11-29T17:26:36.226Z,9.60
2018-11-29T17:29:05.963Z,9.60
2018-11-29T17:31:35.370Z,9.50
2018-11-29T17:34:05.002Z,9.50
2018-11-29T17:36:34.427Z,9.40
2018-11-29T17:39:05.630Z,9.30
2018-11-29T17:41:35.062Z,9.20
2018-11-29T17:44:04.539Z,9.00
2018-11-29T17:46:33.990Z,8.80
2018-11-29T17:49:03.508Z,8.60
2018-11-29T17:51:32.910Z,8.50
2018-11-29T17:54:02.330Z,8.40
2018-11-29T17:56:32.167Z,8.30
2018-11-29T17:59:02.828Z,8.20
2018-11-29T18:01:31.238Z,8.20
2018-11-29T18:04:00.606Z,8.10
2018-11-29T18:06:35.367Z,8.10
2018-11-29T18:09:09.060Z,8.10
2018-11-29T18:11:39.143Z,8.20
2018-11-29T18:14:08.880Z,8.50
2018-11-29T18:16:38.278Z,8.60
2018-11-29T18:19:13.045Z,8.70
2018-11-29T18:21:37.211Z,8.80
2018-11-29T18:24:06.713Z,8.80
2018-11-29T18:26:36.123Z,8.70
2018-11-29T18:29:05.839Z,8.60
2018-11-29T18:31:35.261Z,8.50
2018-11-29T18:34:05.345Z,8.50
2018-11-29T18:36:34.768Z,8.60
2018-11-29T18:39:05.751Z,8.60
2018-11-29T18:41:35.196Z,8.70
2018-11-29T18:44:04.595Z,8.70
2018-11-29T18:46:34.054Z,8.70
2018-11-29T18:49:03.542Z,8.70
2018-11-29T18:51:32.983Z,8.80
2018-11-29T18:54:02.454Z,8.70
2018-11-29T18:56:31.913Z,8.70
2018-11-29T18:59:01.342Z,8.60
2018-11-29T19:01:30.820Z,8.60
2018-11-29T19:04:00.198Z,8.60
2018-11-29T19:06:29.727Z,8.60
2018-11-29T19:08:59.129Z,8.50
2018-11-29T19:11:28.539Z,8.60
2018-11-29T19:13:58.038Z,8.60
2018-11-29T19:16:27.435Z,8.60
2018-11-29T19:18:56.842Z,8.60
2018-11-29T19:21:26.267Z,8.60
2018-11-29T19:23:55.670Z,8.50
2018-11-29T19:26:25.096Z,8.50
2018-11-29T19:28:54.526Z,8.40
2018-11-29T19:31:23.957Z,8.40
2018-11-29T19:33:53.343Z,8.50
2018-11-29T19:36:22.774Z,8.40
2018-11-29T19:38:57.517Z,8.50
2018-11-29T19:41:26.979Z,8.40
2018-11-29T19:43:56.910Z,8.40
2018-11-29T19:46:26.003Z,8.50
2018-11-29T19:48:55.452Z,8.50
2018-11-29T19:51:25.012Z,8.60
2018-11-29T19:53:54.619Z,8.70
2018-11-29T19:56:24.023Z,8.70
2018-11-29T19:58:53.538Z,8.70
2018-11-29T20:01:23.010Z,8.60
2018-11-29T20:03:52.491Z,8.50
2018-11-29T20:06:21.851Z,8.40
2018-11-29T20:08:51.291Z,8.30
2018-11-29T20:11:20.743Z,8.30
2018-11-29T20:13:50.132Z,8.20
2018-11-29T20:16:19.543Z,8.20
2018-11-29T20:18:49.053Z,8.30
2018-11-29T20:21:18.516Z,8.30
2018-11-29T20:23:47.950Z,8.30
2018-11-29T20:26:17.363Z,8.30
2018-11-29T20:28:46.778Z,8.20
2018-11-29T20:31:16.214Z,8.10
2018-11-29T20:33:45.632Z,8.10
2018-11-29T20:36:15.022Z,8.00
2018-11-29T20:38:44.442Z,8.10
2018-11-29T20:41:13.878Z,8.00
2018-11-29T20:43:43.290Z,7.90
2018-11-29T20:46:12.747Z,7.90
2018-11-29T20:48:42.158Z,7.90
2018-11-29T20:51:11.693Z,8.00
2018-11-29T20:53:41.527Z,8.00
2018-11-29T20:56:16.058Z,7.90
2018-11-29T20:58:45.531Z,7.80
2018-11-29T21:01:14.927Z,7.80
2018-11-29T21:03:44.335Z,7.80
2018-11-29T21:06:14.150Z,7.80
2018-11-29T21:08:43.674Z,7.70
2018-11-29T21:11:13.046Z,7.60
2018-11-29T21:13:42.474Z,7.40
2018-11-29T21:16:11.890Z,7.50
2018-11-29T21:18:41.306Z,7.50
2018-11-29T21:21:10.725Z,7.40
2018-11-29T21:23:40.146Z,7.30
2018-11-29T21:26:09.567Z,7.20
2018-11-29T21:28:39.002Z,7.00
2018-11-29T21:31:08.414Z,6.90
2018-11-29T21:33:37.839Z,6.80
2018-11-29T21:36:07.242Z,6.70
2018-11-29T21:38:41.794Z,6.60
2018-11-29T21:41:11.202Z,6.60
2018-11-29T21:43:40.614Z,6.60
2018-11-29T21:46:10.342Z,6.80
2018-11-29T21:48:39.750Z,6.90
2018-11-29T21:51:09.174Z,6.90
2018-11-29T21:53:38.854Z,6.80
2018-11-29T21:56:08.332Z,6.50
2018-11-29T21:58:37.859Z,6.30
2018-11-29T22:01:07.274Z,6.10
2018-11-29T22:03:36.666Z,5.80
2018-11-29T22:06:06.087Z,6.00
2018-11-29T22:08:35.490Z,6.10
2018-11-29T22:11:05.107Z,6.30
2018-11-29T22:13:34.515Z,6.20
2018-11-29T22:16:03.959Z,6.00
2018-11-29T22:18:33.362Z,5.70
2018-11-29T22:21:03.739Z,5.60
2018-11-29T22:23:34.623Z,5.40
2018-11-29T22:26:06.866Z,5.30
2018-11-29T22:28:36.436Z,5.40
2018-11-29T22:31:05.866Z,5.30
2018-11-29T22:33:35.327Z,5.30
2018-11-29T22:36:05.115Z,5.20
2018-11-29T22:41:32.246Z,5.10
2018-11-29T22:44:01.697Z,5.10
2018-11-29T22:46:31.150Z,5.00
2018-11-29T22:49:00.746Z,4.90
2018-11-29T22:51:35.123Z,4.80
2018-11-29T22:54:04.782Z,4.80
2018-11-29T22:56:34.240Z,4.90
2018-11-29T22:59:03.670Z,4.90
2018-11-29T23:01:33.093Z,4.90
2018-11-29T23:04:02.525Z,4.80
2018-11-29T23:06:31.934Z,4.70
2018-11-29T23:09:01.571Z,4.60
2018-11-29T23:11:30.975Z,4.40
2018-11-29T23:14:00.390Z,4.40
2018-11-29T23:16:29.787Z,4.60
2018-11-29T23:18:59.190Z,4.70
2018-11-29T23:21:28.606Z,4.90
2018-11-29T23:23:58.027Z,5.10
2018-11-29T23:26:27.436Z,5.10
2018-11-29T23:28:56.850Z,5.10
2018-11-29T23:31:26.283Z,5.10
2018-11-29T23:33:55.685Z,5.10
2018-11-29T23:36:25.315Z,5.20
2018-11-29T23:38:54.738Z,5.30
2018-11-29T23:41:24.149Z,5.40
2018-11-29T23:43:53.575Z,5.50
2018-11-29T23:46:23.011Z,5.70
2018-11-29T23:48:52.410Z,5.60
2018-11-29T23:51:21.821Z,5.50
2018-11-29T23:53:51.239Z,5.20
2018-11-29T23:56:20.638Z,5.10
2018-11-29T23:58:50.046Z,4.90
